Warning: Javascript must be enabled to use all the features on this page!


Page Loading - Please Wait...

Click to hideNews Bulletins

Peak Streamflow for the Nation

USGS 06335500 LITTLE MISSOURI RIVER AT MARMARTH, ND

Slope County, North Dakota
Hydrologic Unit Code 10110203
Latitude  46°17'52", Longitude 103°55'03" NAD83
Drainage area 4,640  square miles
Gage datum 2,688.1 feet above NAVD88
Output formats
Table
Graph
Tab-separated file
peakfq (watstore) format
Reselect output format
Water
Year
Date Gage
Height
(feet)
Stream-
flow
(cfs)
1939 1939-07-07 9.70 7,710
1940 1940-07-28 9.77 7,710
1941 1941-06-11 11.10 9,990
1942 1942-05-30 7.21 4,160
1943 1943-02-20 19.501 36,000
1944 1944-04-05 17.80 29,600
1945 1945-03-13 11.35 10,400
1946 1946-06-23 11.00 10,800
1947 1947-03-23 21.70 45,000
1948 1948-03-15 13.49 15,0002
1949 1949-03-24 11.20 11,700
1950 1950-04-07 14.20 18,500
1951 1951-07-29 8.05 4,940
1952 1952-03-31 23.401 41,300
1953 1953-06-19 10.44 10,000
1954 1954-09-06 6.25 3,400
1955 1955-06-27 5.80 2,550
1956 1956-03-23 6.05 2,810
1957 1957-04-22 8.66 6,890
1958 1958-06-10 8.12 6,080
1959 1959-03-24 8.33 5,570
1960 1960-03-25 9.50 7,430
1961 1961-09-13 3.85 902
1962 1962-05-28 11.35 12,400
1963 1963-06-15 7.462 5,390
1964 1964-06-09 11.42 12,200
1965 1965-04-06 10.10 9,150
1966 1966-07-13 9.03 7,480
1967 1967-05-10 13.59 15,400
1968 1968-03-02   6,5002
1969 1969-03-22 10.73 10,200
1970 1970-06-13 8.77 7,010
1971 1971-06-05 16.31 21,300
1972 1972-03-12 13.501,2 15,500
1973 1973-06-19 7.842 5,660
1974 1974-05-20 8.24 5,540
1975 1975-05-08 16.75 26,600
1976 1976-06-17 8.18 6,170
1977 1977-06-15 7.42 4,720
1978 1978-03-27 17.33 24,400
1979 1979-03-30 7.201 4,280
1980 1980-03-19 3.651 2102
1981 1981-08-03 4.06 962
1982 1982-05-23 10.61 8,990
1983 1983-02-21 9.991 3,450
1984 1984-06-21 8.60 6,080
1985 1985-03-20 9.98 7,700
1986 1986-05-12 10.242 8,920
1987 1987-04-05 7.41 4,010
1988 1988-07-06   5002
1989 1989-05-06 5.60 2,360
1990 1990-07-25 10.74 9,810
1991 1991-06-24 6.76 3,740
1992 1992-07-29 3.45 630
1993 1993-06-11 8.55 5,020
1994 1994-03-04 9.15 6,280
1995 1995-05-13 14.30 15,700
1996 1996-03-12 12.321 8,000
1997 1997-03-20   10,0001,2
1998 1998-03-30 6.752 3,340
1999 1999-03-01 9.05 6,910
2000 2000-07-06 4.36 1,430
2001 2001-03-10 9.741 5,7002
2002 2002-06-11 3.622 948
2003 2003-03-19 6.302 2,8002
2004 2004-03-10 6.741 2,8002
2005 2005-05-14 8.992 6,810
2006 2006-04-24 13.33 12,100
2007 2007-06-07 11.77 10,100
2008 2008-05-09 12.24 10,400
2009 2009-04-17 16.85 21,100
2010 2010-03-23 8.132 4,190
2011 2011-05-23 21.11 40,300
2012 2012-03-13 4.121 3502
2013 2013-09-08 12.35 11,300
2014 2014-03-14 12.202 11,000
2015 2015-06-22 8.37 5,020
2016 2016-09-25 5.05 1,880
2017 2017-04-22 6.742 3,270
2018 2018-04-15 12.42 11,500
2019 2019-03-24 16.54 21,900
2020 2020-03-08 8.97 5,310
2021 2020-10-31 1.722 126
?
  Peak Gage-Height Qualification Codes.
?
  Peak Streamflow Qualification Codes.